sensor_id;sensor_type;location;lat;lon;timestamp;pressure;altitude;pressure_sealevel;temperature;humidity
7297;BME280;40758;54.038;11.684;2024-01-30T00:00:02;102661.00;;;-0.10;100.00
7297;BME280;40758;54.038;11.684;2024-01-30T00:02:30;102666.22;;;-0.21;100.00
7297;BME280;40758;54.038;11.684;2024-01-30T00:04:57;102658.94;;;-0.32;100.00
7297;BME280;40758;54.038;11.684;2024-01-30T00:07:24;102673.53;;;-0.38;100.00
7297;BME280;40758;54.038;11.684;2024-01-30T00:09:51;102661.88;;;-0.49;100.00
7297;BME280;40758;54.038;11.684;2024-01-30T00:12:17;102664.84;;;-0.54;100.00
7297;BME280;40758;54.038;11.684;2024-01-30T00:14:45;102666.66;;;-0.55;100.00
7297;BME280;40758;54.038;11.684;2024-01-30T00:17:12;102663.34;;;-0.58;100.00
7297;BME280;40758;54.038;11.684;2024-01-30T00:19:39;102649.00;;;-0.70;100.00
7297;BME280;40758;54.038;11.684;2024-01-30T00:22:05;102651.78;;;-0.71;100.00
7297;BME280;40758;54.038;11.684;2024-01-30T00:24:32;102655.69;;;-0.77;100.00
7297;BME280;40758;54.038;11.684;2024-01-30T00:26:59;102656.94;;;-0.83;100.00
7297;BME280;40758;54.038;11.684;2024-01-30T00:29:26;102659.72;;;-0.84;100.00
7297;BME280;40758;54.038;11.684;2024-01-30T00:31:56;102652.03;;;-0.89;100.00
7297;BME280;40758;54.038;11.684;2024-01-30T00:34:23;102649.47;;;-0.90;100.00
7297;BME280;40758;54.038;11.684;2024-01-30T00:36:50;102652.25;;;-0.92;100.00
7297;BME280;40758;54.038;11.684;2024-01-30T00:39:18;102644.63;;;-0.98;100.00
7297;BME280;40758;54.038;11.684;2024-01-30T00:41:46;102646.34;;;-0.97;100.00
7297;BME280;40758;54.038;11.684;2024-01-30T00:44:12;102639.38;;;-0.99;100.00
7297;BME280;40758;54.038;11.684;2024-01-30T00:46:39;102634.66;;;-1.09;100.00
7297;BME280;40758;54.038;11.684;2024-01-30T00:49:06;102635.91;;;-1.14;100.00
7297;BME280;40758;54.038;11.684;2024-01-30T00:51:33;102652.09;;;-1.17;100.00
7297;BME280;40758;54.038;11.684;2024-01-30T00:54:00;102639.94;;;-1.21;100.00
7297;BME280;40758;54.038;11.684;2024-01-30T00:56:27;102635.91;;;-1.14;100.00
7297;BME280;40758;54.038;11.684;2024-01-30T00:58:53;102646.81;;;-1.04;100.00
7297;BME280;40758;54.038;11.684;2024-01-30T01:01:20;102647.31;;;-0.98;100.00
7297;BME280;40758;54.038;11.684;2024-01-30T01:03:47;102644.25;;;-0.92;100.00
7297;BME280;40758;54.038;11.684;2024-01-30T01:06:15;102652.13;;;-0.90;100.00
7297;BME280;40758;54.038;11.684;2024-01-30T01:08:42;102659.69;;;-0.97;100.00
7297;BME280;40758;54.038;11.684;2024-01-30T01:11:08;102633.88;;;-1.11;100.00
7297;BME280;40758;54.038;11.684;2024-01-30T01:13:36;102652.47;;;-1.09;100.00
7297;BME280;40758;54.038;11.684;2024-01-30T01:16:03;102653.06;;;-1.18;100.00
7297;BME280;40758;54.038;11.684;2024-01-30T01:18:30;102653.44;;;-1.24;100.00
7297;BME280;40758;54.038;11.684;2024-01-30T01:20:57;102659.06;;;-1.29;100.00
7297;BME280;40758;54.038;11.684;2024-01-30T01:23:24;102663.19;;;-1.38;100.00
7297;BME280;40758;54.038;11.684;2024-01-30T01:25:51;102651.97;;;-1.43;100.00
7297;BME280;40758;54.038;11.684;2024-01-30T01:28:18;102662.50;;;-1.41;100.00
7297;BME280;40758;54.038;11.684;2024-01-30T01:30:45;102647.50;;;-1.56;100.00
7297;BME280;40758;54.038;11.684;2024-01-30T01:33:13;102650.91;;;-1.54;100.00
7297;BME280;40758;54.038;11.684;2024-01-30T01:35:41;102663.09;;;-1.50;100.00
7297;BME280;40758;54.038;11.684;2024-01-30T01:38:08;102658.63;;;-1.50;100.00
7297;BME280;40758;54.038;11.684;2024-01-30T01:40:35;102656.25;;;-1.54;100.00
7297;BME280;40758;54.038;11.684;2024-01-30T01:43:03;102658.91;;;-1.54;100.00
7297;BME280;40758;54.038;11.684;2024-01-30T01:45:31;102654.81;;;-1.60;100.00
7297;BME280;40758;54.038;11.684;2024-01-30T01:47:57;102665.78;;;-1.50;100.00
7297;BME280;40758;54.038;11.684;2024-01-30T01:50:24;102664.91;;;-1.37;100.00
7297;BME280;40758;54.038;11.684;2024-01-30T01:52:52;102659.13;;;-1.16;100.00
7297;BME280;40758;54.038;11.684;2024-01-30T01:55:21;102649.47;;;-0.90;100.00
7297;BME280;40758;54.038;11.684;2024-01-30T01:57:53;102651.19;;;-0.62;100.00
7297;BME280;40758;54.038;11.684;2024-01-30T02:00:20;102649.81;;;-0.42;100.00
7297;BME280;40758;54.038;11.684;2024-01-30T02:02:47;102647.31;;;-0.18;100.00
7297;BME280;40758;54.038;11.684;2024-01-30T02:05:15;102644.00;;;-0.09;100.00
7297;BME280;40758;54.038;11.684;2024-01-30T02:07:42;102652.13;;;0.15;100.00
7297;BME280;40758;54.038;11.684;2024-01-30T02:10:10;102652.91;;;0.30;100.00
7297;BME280;40758;54.038;11.684;2024-01-30T02:12:37;102646.44;;;0.45;100.00
7297;BME280;40758;54.038;11.684;2024-01-30T02:15:04;102642.81;;;0.59;100.00
7297;BME280;40758;54.038;11.684;2024-01-30T02:17:31;102646.44;;;0.70;100.00
7297;BME280;40758;54.038;11.684;2024-01-30T02:19:59;102644.03;;;0.78;100.00
7297;BME280;40758;54.038;11.684;2024-01-30T02:22:26;102640.72;;;0.88;100.00
7297;BME280;40758;54.038;11.684;2024-01-30T02:24:54;102634.91;;;0.94;100.00
7297;BME280;40758;54.038;11.684;2024-01-30T02:27:20;102634.97;;;1.05;100.00
7297;BME280;40758;54.038;11.684;2024-01-30T02:29:47;102630.09;;;1.10;100.00
7297;BME280;40758;54.038;11.684;2024-01-30T02:32:14;102632.97;;;1.20;100.00
7297;BME280;40758;54.038;11.684;2024-01-30T02:34:40;102626.31;;;1.25;100.00
7297;BME280;40758;54.038;11.684;2024-01-30T02:37:07;102631.44;;;1.28;100.00
7297;BME280;40758;54.038;11.684;2024-01-30T02:39:34;102640.19;;;1.30;100.00
7297;BME280;40758;54.038;11.684;2024-01-30T02:42:01;102636.44;;;1.33;100.00
7297;BME280;40758;54.038;11.684;2024-01-30T02:44:29;102641.78;;;1.33;100.00
7297;BME280;40758;54.038;11.684;2024-01-30T02:46:55;102639.09;;;1.33;100.00
7297;BME280;40758;54.038;11.684;2024-01-30T02:49:22;102638.88;;;1.36;100.00
7297;BME280;40758;54.038;11.684;2024-01-30T02:51:49;102630.72;;;1.38;100.00
7297;BME280;40758;54.038;11.684;2024-01-30T02:54:16;102632.22;;;1.42;100.00
7297;BME280;40758;54.038;11.684;2024-01-30T02:56:43;102629.06;;;1.48;100.00
7297;BME280;40758;54.038;11.684;2024-01-30T02:59:09;102634.94;;;1.53;100.00
7297;BME280;40758;54.038;11.684;2024-01-30T03:01:45;102637.88;;;1.61;100.00
7297;BME280;40758;54.038;11.684;2024-01-30T03:04:13;102627.16;;;1.61;100.00
7297;BME280;40758;54.038;11.684;2024-01-30T03:06:45;102623.06;;;1.68;100.00
7297;BME280;40758;54.038;11.684;2024-01-30T03:09:12;102635.38;;;1.71;100.00
7297;BME280;40758;54.038;11.684;2024-01-30T03:11:40;102631.84;;;1.70;100.00
7297;BME280;40758;54.038;11.684;2024-01-30T03:14:07;102631.50;;;1.75;100.00
7297;BME280;40758;54.038;11.684;2024-01-30T03:16:34;102622.59;;;1.74;100.00
7297;BME280;40758;54.038;11.684;2024-01-30T03:19:01;102625.75;;;1.79;100.00
7297;BME280;40758;54.038;11.684;2024-01-30T03:21:29;102629.19;;;1.81;100.00
7297;BME280;40758;54.038;11.684;2024-01-30T03:23:56;102636.00;;;1.85;100.00
7297;BME280;40758;54.038;11.684;2024-01-30T03:26:22;102631.53;;;1.86;100.00
7297;BME280;40758;54.038;11.684;2024-01-30T03:28:49;102636.28;;;1.94;100.00
7297;BME280;40758;54.038;11.684;2024-01-30T03:31:16;102624.34;;;1.98;100.00
7297;BME280;40758;54.038;11.684;2024-01-30T03:33:43;102629.97;;;2.06;100.00
7297;BME280;40758;54.038;11.684;2024-01-30T03:36:10;102624.13;;;2.12;100.00
7297;BME280;40758;54.038;11.684;2024-01-30T03:38:37;102615.84;;;2.15;100.00
7297;BME280;40758;54.038;11.684;2024-01-30T03:41:10;102612.78;;;2.20;100.00
7297;BME280;40758;54.038;11.684;2024-01-30T03:43:37;102619.25;;;2.28;100.00
7297;BME280;40758;54.038;11.684;2024-01-30T03:46:04;102612.91;;;2.29;100.00
7297;BME280;40758;54.038;11.684;2024-01-30T03:48:30;102610.97;;;2.31;100.00
7297;BME280;40758;54.038;11.684;2024-01-30T03:50:58;102603.66;;;2.33;100.00
7297;BME280;40758;54.038;11.684;2024-01-30T03:53:25;102598.03;;;2.36;100.00
7297;BME280;40758;54.038;11.684;2024-01-30T03:55:52;102598.53;;;2.42;100.00
7297;BME280;40758;54.038;11.684;2024-01-30T03:58:18;102610.38;;;2.50;100.00
7297;BME280;40758;54.038;11.684;2024-01-30T04:00:45;102595.63;;;2.56;100.00
7297;BME280;40758;54.038;11.684;2024-01-30T04:03:14;102585.47;;;2.59;100.00
7297;BME280;40758;54.038;11.684;2024-01-30T04:05:42;102577.91;;;2.64;100.00
7297;BME280;40758;54.038;11.684;2024-01-30T04:08:09;102586.56;;;2.68;100.00
7297;BME280;40758;54.038;11.684;2024-01-30T04:10:36;102584.72;;;2.69;100.00
7297;BME280;40758;54.038;11.684;2024-01-30T04:13:02;102584.88;;;2.67;100.00
7297;BME280;40758;54.038;11.684;2024-01-30T04:15:29;102579.25;;;2.59;100.00
7297;BME280;40758;54.038;11.684;2024-01-30T04:17:59;102585.59;;;2.58;100.00
7297;BME280;40758;54.038;11.684;2024-01-30T04:20:26;102572.91;;;2.49;100.00
7297;BME280;40758;54.038;11.684;2024-01-30T04:22:53;102581.81;;;2.49;100.00
7297;BME280;40758;54.038;11.684;2024-01-30T04:25:20;102587.66;;;2.43;100.00
7297;BME280;40758;54.038;11.684;2024-01-30T04:27:47;102582.56;;;2.29;100.00
7297;BME280;40758;54.038;11.684;2024-01-30T04:30:14;102591.13;;;2.23;100.00
7297;BME280;40758;54.038;11.684;2024-01-30T04:32:41;102592.81;;;2.12;100.00
7297;BME280;40758;54.038;11.684;2024-01-30T04:35:08;102593.06;;;1.98;100.00
7297;BME280;40758;54.038;11.684;2024-01-30T04:37:37;102595.22;;;1.82;100.00
7297;BME280;40758;54.038;11.684;2024-01-30T04:40:04;102601.53;;;1.70;100.00
7297;BME280;40758;54.038;11.684;2024-01-30T04:42:32;102592.59;;;1.58;100.00
7297;BME280;40758;54.038;11.684;2024-01-30T04:44:58;102594.91;;;1.51;100.00
7297;BME280;40758;54.038;11.684;2024-01-30T04:47:25;102593.59;;;1.57;100.00
7297;BME280;40758;54.038;11.684;2024-01-30T04:49:55;102589.94;;;1.58;100.00
7297;BME280;40758;54.038;11.684;2024-01-30T04:52:21;102589.47;;;1.64;100.00
7297;BME280;40758;54.038;11.684;2024-01-30T04:54:48;102586.03;;;1.62;100.00
7297;BME280;40758;54.038;11.684;2024-01-30T04:57:15;102597.25;;;1.67;100.00
7297;BME280;40758;54.038;11.684;2024-01-30T04:59:42;102590.19;;;1.66;100.00
7297;BME280;40758;54.038;11.684;2024-01-30T05:02:08;102579.59;;;1.65;100.00
7297;BME280;40758;54.038;11.684;2024-01-30T05:04:36;102581.66;;;1.61;100.00
7297;BME280;40758;54.038;11.684;2024-01-30T05:07:03;102577.75;;;1.54;100.00
7297;BME280;40758;54.038;11.684;2024-01-30T05:09:29;102580.16;;;1.46;100.00
7297;BME280;40758;54.038;11.684;2024-01-30T05:11:56;102579.63;;;1.29;100.00
7297;BME280;40758;54.038;11.684;2024-01-30T05:14:24;102576.91;;;1.18;100.00
7297;BME280;40758;54.038;11.684;2024-01-30T05:16:51;102577.22;;;1.14;100.00
7297;BME280;40758;54.038;11.684;2024-01-30T05:19:18;102582.19;;;1.07;100.00
7297;BME280;40758;54.038;11.684;2024-01-30T05:21:45;102578.88;;;1.03;100.00
7297;BME280;40758;54.038;11.684;2024-01-30T05:24:12;102589.50;;;1.05;100.00
7297;BME280;40758;54.038;11.684;2024-01-30T05:26:39;102581.94;;;0.99;100.00
7297;BME280;40758;54.038;11.684;2024-01-30T05:29:06;102575.53;;;0.89;100.00
7297;BME280;40758;54.038;11.684;2024-01-30T05:31:33;102588.53;;;0.82;100.00
7297;BME280;40758;54.038;11.684;2024-01-30T05:34:01;102574.84;;;0.74;100.00
7297;BME280;40758;54.038;11.684;2024-01-30T05:36:28;102580.50;;;0.82;100.00
7297;BME280;40758;54.038;11.684;2024-01-30T05:38:56;102572.56;;;0.80;100.00
7297;BME280;40758;54.038;11.684;2024-01-30T05:41:23;102570.66;;;0.83;100.00
7297;BME280;40758;54.038;11.684;2024-01-30T05:43:50;102560.16;;;0.79;100.00
7297;BME280;40758;54.038;11.684;2024-01-30T05:46:17;102551.28;;;0.79;100.00
7297;BME280;40758;54.038;11.684;2024-01-30T05:48:46;102548.00;;;0.75;100.00
7297;BME280;40758;54.038;11.684;2024-01-30T05:51:12;102548.84;;;0.76;100.00
7297;BME280;40758;54.038;11.684;2024-01-30T05:53:39;102551.88;;;0.71;100.00
7297;BME280;40758;54.038;11.684;2024-01-30T05:56:06;102559.38;;;0.66;100.00
7297;BME280;40758;54.038;11.684;2024-01-30T05:58:33;102552.13;;;0.56;100.00
7297;BME280;40758;54.038;11.684;2024-01-30T06:01:00;102546.13;;;0.52;100.00
7297;BME280;40758;54.038;11.684;2024-01-30T06:03:27;102544.69;;;0.48;100.00
7297;BME280;40758;54.038;11.684;2024-01-30T06:05:54;102546.31;;;0.38;100.00
7297;BME280;40758;54.038;11.684;2024-01-30T06:08:20;102552.53;;;0.25;100.00
7297;BME280;40758;54.038;11.684;2024-01-30T06:10:48;102550.31;;;0.19;100.00
7297;BME280;40758;54.038;11.684;2024-01-30T06:13:15;102539.66;;;0.07;100.00
7297;BME280;40758;54.038;11.684;2024-01-30T06:15:42;102545.41;;;0.13;100.00
7297;BME280;40758;54.038;11.684;2024-01-30T06:18:09;102545.16;;;0.16;100.00
7297;BME280;40758;54.038;11.684;2024-01-30T06:20:36;102547.06;;;0.27;100.00
7297;BME280;40758;54.038;11.684;2024-01-30T06:23:03;102532.28;;;0.34;100.00
7297;BME280;40758;54.038;11.684;2024-01-30T06:25:30;102545.34;;;0.39;100.00
7297;BME280;40758;54.038;11.684;2024-01-30T06:27:57;102530.47;;;0.35;100.00
7297;BME280;40758;54.038;11.684;2024-01-30T06:30:24;102540.56;;;0.31;100.00
7297;BME280;40758;54.038;11.684;2024-01-30T06:32:50;102546.47;;;0.23;100.00
7297;BME280;40758;54.038;11.684;2024-01-30T06:35:17;102541.97;;;0.11;100.00
7297;BME280;40758;54.038;11.684;2024-01-30T06:37:44;102544.13;;;0.06;100.00
7297;BME280;40758;54.038;11.684;2024-01-30T06:40:11;102546.03;;;0.04;100.00
7297;BME280;40758;54.038;11.684;2024-01-30T06:42:38;102542.19;;;0.08;100.00
7297;BME280;40758;54.038;11.684;2024-01-30T06:45:05;102534.91;;;0.10;100.00
7297;BME280;40758;54.038;11.684;2024-01-30T06:47:32;102532.25;;;0.10;100.00
7297;BME280;40758;54.038;11.684;2024-01-30T06:50:00;102527.88;;;0.09;100.00
7297;BME280;40758;54.038;11.684;2024-01-30T06:52:28;102545.31;;;0.02;100.00
7297;BME280;40758;54.038;11.684;2024-01-30T06:54:55;102532.81;;;-0.10;100.00
7297;BME280;40758;54.038;11.684;2024-01-30T06:57:22;102529.38;;;-0.12;100.00
7297;BME280;40758;54.038;11.684;2024-01-30T06:59:48;102538.69;;;-0.05;100.00
7297;BME280;40758;54.038;11.684;2024-01-30T07:02:15;102527.75;;;0.11;100.00
7297;BME280;40758;54.038;11.684;2024-01-30T07:04:42;102537.06;;;0.18;100.00
7297;BME280;40758;54.038;11.684;2024-01-30T07:07:13;102540.88;;;0.26;100.00
7297;BME280;40758;54.038;11.684;2024-01-30T07:09:42;102517.06;;;0.23;100.00
7297;BME280;40758;54.038;11.684;2024-01-30T07:12:08;102514.88;;;0.29;100.00
7297;BME280;40758;54.038;11.684;2024-01-30T07:14:35;102518.44;;;0.29;100.00
7297;BME280;40758;54.038;11.684;2024-01-30T07:17:02;102521.44;;;0.24;100.00
7297;BME280;40758;54.038;11.684;2024-01-30T07:19:29;102520.91;;;0.19;100.00
7297;BME280;40758;54.038;11.684;2024-01-30T07:21:56;102516.75;;;0.15;100.00
7297;BME280;40758;54.038;11.684;2024-01-30T07:24:23;102524.31;;;0.21;100.00
7297;BME280;40758;54.038;11.684;2024-01-30T07:26:49;102498.28;;;0.12;100.00
7297;BME280;40758;54.038;11.684;2024-01-30T07:29:16;102516.50;;;0.31;100.00
7297;BME280;40758;54.038;11.684;2024-01-30T07:31:43;102509.00;;;0.36;100.00
7297;BME280;40758;54.038;11.684;2024-01-30T07:34:09;102516.72;;;0.52;100.00
7297;BME280;40758;54.038;11.684;2024-01-30T07:36:37;102516.59;;;0.66;100.00
7297;BME280;40758;54.038;11.684;2024-01-30T07:39:06;102515.41;;;0.70;100.00
7297;BME280;40758;54.038;11.684;2024-01-30T07:41:33;102510.28;;;0.67;100.00
7297;BME280;40758;54.038;11.684;2024-01-30T07:43:59;102517.44;;;0.67;100.00
7297;BME280;40758;54.038;11.684;2024-01-30T07:46:27;102512.50;;;0.73;100.00
7297;BME280;40758;54.038;11.684;2024-01-30T07:48:54;102517.88;;;0.85;100.00
7297;BME280;40758;54.038;11.684;2024-01-30T07:51:22;102503.19;;;0.90;100.00
7297;BME280;40758;54.038;11.684;2024-01-30T07:53:49;102513.34;;;1.09;100.00
7297;BME280;40758;54.038;11.684;2024-01-30T07:56:15;102513.13;;;1.12;100.00
7297;BME280;40758;54.038;11.684;2024-01-30T07:58:42;102513.13;;;1.12;100.00
7297;BME280;40758;54.038;11.684;2024-01-30T08:01:09;102521.56;;;1.19;100.00
7297;BME280;40758;54.038;11.684;2024-01-30T08:03:36;102522.31;;;1.32;100.00
7297;BME280;40758;54.038;11.684;2024-01-30T08:06:06;102514.59;;;1.51;100.00
7297;BME280;40758;54.038;11.684;2024-01-30T08:08:33;102515.94;;;1.68;100.00
7297;BME280;40758;54.038;11.684;2024-01-30T08:11:00;102522.53;;;1.86;100.00
7297;BME280;40758;54.038;11.684;2024-01-30T08:13:27;102515.84;;;2.03;100.00
7297;BME280;40758;54.038;11.684;2024-01-30T08:15:54;102512.53;;;2.22;100.00
7297;BME280;40758;54.038;11.684;2024-01-30T08:18:21;102519.78;;;2.43;100.00
7297;BME280;40758;54.038;11.684;2024-01-30T08:20:47;102521.56;;;2.64;100.00
7297;BME280;40758;54.038;11.684;2024-01-30T08:23:15;102517.13;;;2.86;100.00
7297;BME280;40758;54.038;11.684;2024-01-30T08:25:42;102520.81;;;3.06;100.00
7297;BME280;40758;54.038;11.684;2024-01-30T08:28:09;102520.09;;;3.25;100.00
7297;BME280;40758;54.038;11.684;2024-01-30T08:30:35;102524.66;;;3.45;100.00
7297;BME280;40758;54.038;11.684;2024-01-30T08:33:02;102521.50;;;3.61;100.00
7297;BME280;40758;54.038;11.684;2024-01-30T08:35:29;102523.56;;;3.78;100.00
7297;BME280;40758;54.038;11.684;2024-01-30T08:37:58;102517.75;;;4.04;100.00
7297;BME280;40758;54.038;11.684;2024-01-30T08:40:25;102520.13;;;4.37;100.00
7297;BME280;40758;54.038;11.684;2024-01-30T08:42:51;102504.88;;;4.57;100.00
7297;BME280;40758;54.038;11.684;2024-01-30T08:45:18;102483.09;;;4.70;100.00
7297;BME280;40758;54.038;11.684;2024-01-30T08:47:45;102495.28;;;4.93;100.00
7297;BME280;40758;54.038;11.684;2024-01-30T08:50:12;102493.16;;;5.06;100.00
7297;BME280;40758;54.038;11.684;2024-01-30T08:52:40;102500.50;;;5.24;100.00
7297;BME280;40758;54.038;11.684;2024-01-30T08:55:07;102502.63;;;5.40;100.00
7297;BME280;40758;54.038;11.684;2024-01-30T08:57:34;102495.59;;;5.56;100.00
7297;BME280;40758;54.038;11.684;2024-01-30T09:00:01;102495.16;;;5.71;100.00
7297;BME280;40758;54.038;11.684;2024-01-30T09:02:31;102490.59;;;5.81;100.00
7297;BME280;40758;54.038;11.684;2024-01-30T09:04:58;102489.59;;;5.92;100.00
7297;BME280;40758;54.038;11.684;2024-01-30T09:07:25;102482.03;;;5.95;100.00
7297;BME280;40758;54.038;11.684;2024-01-30T09:09:52;102474.66;;;5.97;100.00
7297;BME280;40758;54.038;11.684;2024-01-30T09:12:18;102473.66;;;5.98;100.00
7297;BME280;40758;54.038;11.684;2024-01-30T09:14:45;102470.97;;;5.98;100.00
7297;BME280;40758;54.038;11.684;2024-01-30T09:17:12;102469.97;;;5.99;100.00
7297;BME280;40758;54.038;11.684;2024-01-30T09:19:40;102475.75;;;6.04;100.00
7297;BME280;40758;54.038;11.684;2024-01-30T09:22:08;102476.59;;;6.05;100.00
7297;BME280;40758;54.038;11.684;2024-01-30T09:24:35;102472.34;;;6.02;100.00
7297;BME280;40758;54.038;11.684;2024-01-30T09:27:02;102470.63;;;6.11;100.00
7297;BME280;40758;54.038;11.684;2024-01-30T09:29:29;102471.41;;;6.21;100.00
7297;BME280;40758;54.038;11.684;2024-01-30T09:31:56;102467.97;;;6.29;100.00
7297;BME280;40758;54.038;11.684;2024-01-30T09:34:24;102464.72;;;6.43;100.00
7297;BME280;40758;54.038;11.684;2024-01-30T09:36:51;102455.06;;;6.68;100.00
7297;BME280;40758;54.038;11.684;2024-01-30T09:39:18;102456.28;;;6.91;100.00
7297;BME280;40758;54.038;11.684;2024-01-30T09:44:53;102453.38;;;7.55;100.00
7297;BME280;40758;54.038;11.684;2024-01-30T09:47:20;102450.31;;;7.84;100.00
7297;BME280;40758;54.038;11.684;2024-01-30T09:49:47;102443.13;;;8.09;100.00
7297;BME280;40758;54.038;11.684;2024-01-30T09:52:15;102443.31;;;8.15;100.00
7297;BME280;40758;54.038;11.684;2024-01-30T09:54:43;102432.97;;;8.03;100.00
7297;BME280;40758;54.038;11.684;2024-01-30T09:57:11;102438.84;;;7.90;100.00
7297;BME280;40758;54.038;11.684;2024-01-30T09:59:38;102436.91;;;7.74;100.00
7297;BME280;40758;54.038;11.684;2024-01-30T10:02:05;102431.25;;;7.59;100.00
7297;BME280;40758;54.038;11.684;2024-01-30T10:04:33;102434.28;;;7.56;100.00
7297;BME280;40758;54.038;11.684;2024-01-30T10:07:02;102425.31;;;7.56;100.00
7297;BME280;40758;54.038;11.684;2024-01-30T10:09:32;102423.13;;;7.59;100.00
7297;BME280;40758;54.038;11.684;2024-01-30T10:11:59;102422.34;;;7.67;100.00
7297;BME280;40758;54.038;11.684;2024-01-30T10:14:25;102419.19;;;7.80;100.00
7297;BME280;40758;54.038;11.684;2024-01-30T10:16:55;102413.13;;;7.86;100.00
7297;BME280;40758;54.038;11.684;2024-01-30T10:19:21;102410.44;;;7.94;100.00
7297;BME280;40758;54.038;11.684;2024-01-30T10:21:49;102404.22;;;8.02;100.00
7297;BME280;40758;54.038;11.684;2024-01-30T10:24:16;102397.81;;;8.11;100.00
7297;BME280;40758;54.038;11.684;2024-01-30T10:26:44;102397.50;;;8.14;100.00
7297;BME280;40758;54.038;11.684;2024-01-30T10:29:10;102404.06;;;8.11;100.00
7297;BME280;40758;54.038;11.684;2024-01-30T10:31:37;102388.50;;;8.05;100.00
7297;BME280;40758;54.038;11.684;2024-01-30T10:34:04;102392.28;;;8.20;100.00
7297;BME280;40758;54.038;11.684;2024-01-30T10:36:46;102396.41;;;8.57;100.00
7297;BME280;40758;54.038;11.684;2024-01-30T10:39:17;102384.25;;;8.94;100.00
7297;BME280;40758;54.038;11.684;2024-01-30T10:41:44;102383.84;;;9.21;100.00
7297;BME280;40758;54.038;11.684;2024-01-30T10:44:15;102383.47;;;9.41;100.00
7297;BME280;40758;54.038;11.684;2024-01-30T10:46:51;102381.09;;;9.46;100.00
7297;BME280;40758;54.038;11.684;2024-01-30T10:49:24;102380.06;;;9.47;100.00
7297;BME280;40758;54.038;11.684;2024-01-30T10:51:52;102380.09;;;9.39;100.00
7297;BME280;40758;54.038;11.684;2024-01-30T10:54:19;102382.59;;;9.48;100.00
7297;BME280;40758;54.038;11.684;2024-01-30T10:56:48;102375.91;;;9.67;100.00
7297;BME280;40758;54.038;11.684;2024-01-30T10:59:15;102377.59;;;9.76;100.00
7297;BME280;40758;54.038;11.684;2024-01-30T11:01:42;102365.13;;;9.90;100.00
7297;BME280;40758;54.038;11.684;2024-01-30T11:04:09;102365.75;;;10.00;100.00
7297;BME280;40758;54.038;11.684;2024-01-30T11:06:42;102354.25;;;9.98;100.00
7297;BME280;40758;54.038;11.684;2024-01-30T11:09:11;102358.53;;;9.93;100.00
7297;BME280;40758;54.038;11.684;2024-01-30T11:11:55;102352.84;;;9.71;100.00
7297;BME280;40758;54.038;11.684;2024-01-30T11:14:30;102352.25;;;9.53;100.00
7297;BME280;40758;54.038;11.684;2024-01-30T11:16:57;102344.50;;;9.42;100.00
7297;BME280;40758;54.038;11.684;2024-01-30T11:19:30;102340.13;;;9.32;100.00
7297;BME280;40758;54.038;11.684;2024-01-30T11:22:01;102324.59;;;9.10;100.00
7297;BME280;40758;54.038;11.684;2024-01-30T11:24:27;102343.75;;;9.09;100.00
7297;BME280;40758;54.038;11.684;2024-01-30T11:26:59;102340.22;;;8.92;100.00
7297;BME280;40758;54.038;11.684;2024-01-30T11:29:29;102342.78;;;8.77;100.00
7297;BME280;40758;54.038;11.684;2024-01-30T11:31:56;102350.22;;;8.67;100.00
7297;BME280;40758;54.038;11.684;2024-01-30T11:34:25;102347.84;;;8.56;100.00
7297;BME280;40758;54.038;11.684;2024-01-30T11:37:04;102340.75;;;8.55;100.00
7297;BME280;40758;54.038;11.684;2024-01-30T11:39:36;102321.44;;;8.58;100.00
7297;BME280;40758;54.038;11.684;2024-01-30T11:42:04;102326.19;;;8.72;100.00
7297;BME280;40758;54.038;11.684;2024-01-30T11:44:31;102317.19;;;8.79;100.00
7297;BME280;40758;54.038;11.684;2024-01-30T11:46:59;102328.38;;;8.85;100.00
7297;BME280;40758;54.038;11.684;2024-01-30T11:49:26;102323.78;;;8.85;100.00
7297;BME280;40758;54.038;11.684;2024-01-30T11:51:53;102337.84;;;8.89;100.00
7297;BME280;40758;54.038;11.684;2024-01-30T11:54:20;102326.66;;;8.92;100.00
7297;BME280;40758;54.038;11.684;2024-01-30T11:56:47;102325.81;;;8.91;100.00
7297;BME280;40758;54.038;11.684;2024-01-30T11:59:13;102327.69;;;8.91;100.00
7297;BME280;40758;54.038;11.684;2024-01-30T12:01:41;102327.19;;;8.87;100.00
7297;BME280;40758;54.038;11.684;2024-01-30T12:04:09;102314.31;;;8.81;100.00
7297;BME280;40758;54.038;11.684;2024-01-30T12:06:37;102317.88;;;8.73;100.00
7297;BME280;40758;54.038;11.684;2024-01-30T12:09:05;102311.81;;;8.71;100.00
7297;BME280;40758;54.038;11.684;2024-01-30T12:11:33;102313.69;;;8.71;100.00
7297;BME280;40758;54.038;11.684;2024-01-30T12:14:09;102309.44;;;8.76;100.00
7297;BME280;40758;54.038;11.684;2024-01-30T12:16:36;102307.06;;;8.82;100.00
7297;BME280;40758;54.038;11.684;2024-01-30T12:19:03;102311.94;;;8.86;100.00
7297;BME280;40758;54.038;11.684;2024-01-30T12:21:30;102310.25;;;8.93;100.00
7297;BME280;40758;54.038;11.684;2024-01-30T12:23:57;102312.59;;;8.96;100.00
7297;BME280;40758;54.038;11.684;2024-01-30T12:26:24;102305.00;;;9.00;100.00
7297;BME280;40758;54.038;11.684;2024-01-30T12:28:56;102302.63;;;8.97;100.00
7297;BME280;40758;54.038;11.684;2024-01-30T12:31:26;102294.16;;;8.92;100.00
7297;BME280;40758;54.038;11.684;2024-01-30T12:33:54;102295.84;;;8.93;100.00
7297;BME280;40758;54.038;11.684;2024-01-30T12:36:22;102297.88;;;8.91;100.00
7297;BME280;40758;54.038;11.684;2024-01-30T12:38:50;102277.91;;;8.92;100.00
7297;BME280;40758;54.038;11.684;2024-01-30T12:41:17;102276.53;;;8.96;100.00
7297;BME280;40758;54.038;11.684;2024-01-30T12:43:44;102272.16;;;8.95;100.00
7297;BME280;40758;54.038;11.684;2024-01-30T12:46:11;102283.66;;;9.05;100.00
7297;BME280;40758;54.038;11.684;2024-01-30T12:48:37;102269.06;;;9.06;100.00
7297;BME280;40758;54.038;11.684;2024-01-30T12:51:04;102277.53;;;9.11;100.00